createdAt,value
2022-10-23T00:00:58.876Z,10.43
2022-10-23T00:03:25.470Z,9.25
2022-10-23T00:05:52.049Z,9.97
2022-10-23T00:08:18.604Z,10.48
2022-10-23T00:10:45.370Z,10.52
2022-10-23T00:13:12.115Z,10.54
2022-10-23T00:15:38.870Z,9.12
2022-10-23T00:18:05.585Z,10.22
2022-10-23T00:20:36.434Z,9.45
2022-10-23T00:23:03.077Z,10.59
2022-10-23T00:25:29.693Z,11.00
2022-10-23T00:27:56.422Z,10.57
2022-10-23T00:30:23.172Z,10.86
2022-10-23T00:32:49.727Z,10.80
2022-10-23T00:35:16.432Z,10.98
2022-10-23T00:37:43.304Z,9.98
2022-10-23T00:40:10.524Z,10.18
2022-10-23T00:42:37.094Z,10.83
2022-10-23T00:45:25.666Z,10.55
2022-10-23T00:47:52.625Z,10.24
2022-10-23T00:50:19.324Z,9.46
2022-10-23T00:52:47.713Z,10.93
2022-10-23T00:55:14.934Z,10.80
2022-10-23T00:57:42.393Z,10.67
2022-10-23T01:00:11.854Z,10.69
2022-10-23T01:02:38.588Z,10.98
2022-10-23T01:05:05.488Z,10.81
2022-10-23T01:07:41.657Z,10.99
2022-10-23T01:10:17.500Z,11.10
2022-10-23T01:13:10.327Z,10.67
2022-10-23T01:15:52.538Z,11.10
2022-10-23T01:18:24.651Z,10.83
2022-10-23T01:20:53.565Z,11.09
2022-10-23T01:23:23.644Z,11.08
2022-10-23T01:25:59.569Z,11.09
2022-10-23T01:28:30.664Z,11.04
2022-10-23T01:30:58.420Z,10.68
2022-10-23T01:33:31.982Z,10.82
2022-10-23T01:36:04.122Z,10.77
2022-10-23T01:38:36.355Z,10.78
2022-10-23T01:41:07.465Z,10.88
2022-10-23T01:43:54.237Z,11.07
2022-10-23T01:46:20.818Z,10.35
2022-10-23T01:48:51.403Z,10.81
2022-10-23T01:51:18.554Z,10.69
2022-10-23T01:53:45.500Z,10.56
2022-10-23T01:56:13.672Z,10.27
2022-10-23T01:58:41.179Z,10.71
2022-10-23T02:01:07.916Z,10.80
2022-10-23T02:03:34.588Z,10.89
2022-10-23T02:06:01.212Z,11.10
2022-10-23T02:08:27.806Z,10.80
2022-10-23T02:11:00.777Z,11.06
2022-10-23T02:13:40.102Z,10.65
2022-10-23T02:16:10.574Z,10.72
2022-10-23T02:19:07.000Z,10.78
2022-10-23T02:22:33.715Z,11.04
2022-10-23T02:25:10.525Z,11.01
2022-10-23T02:27:45.812Z,10.83
2022-10-23T02:30:13.994Z,11.02
2022-10-23T02:32:42.773Z,10.91
2022-10-23T02:35:12.349Z,11.06
2022-10-23T02:37:39.065Z,9.66
2022-10-23T02:40:06.377Z,10.65
2022-10-23T02:42:36.784Z,10.34
2022-10-23T02:45:11.576Z,11.06
2022-10-23T02:47:46.895Z,10.67
2022-10-23T02:50:32.136Z,11.03
2022-10-23T02:53:02.522Z,10.97
2022-10-23T02:55:38.189Z,11.03
2022-10-23T02:58:12.266Z,10.74
2022-10-23T03:00:39.753Z,9.58
2022-10-23T03:03:11.956Z,11.03
2022-10-23T03:05:39.122Z,10.54
2022-10-23T03:08:06.611Z,10.23
2022-10-23T03:10:33.217Z,10.65
2022-10-23T03:12:59.858Z,9.65
2022-10-23T03:15:26.661Z,10.67
2022-10-23T03:17:53.295Z,10.75
2022-10-23T03:20:19.930Z,10.60
2022-10-23T03:22:46.621Z,10.93
2022-10-23T03:25:13.316Z,10.71
2022-10-23T03:27:39.940Z,10.53
2022-10-23T03:30:07.067Z,11.02
2022-10-23T03:32:33.785Z,10.34
2022-10-23T03:35:00.467Z,10.66
2022-10-23T03:37:27.194Z,10.38
2022-10-23T03:39:53.906Z,10.74
2022-10-23T03:42:20.607Z,8.60
2022-10-23T03:44:47.298Z,10.76
2022-10-23T03:47:14.194Z,9.45
2022-10-23T03:49:40.764Z,10.85
2022-10-23T03:52:07.649Z,10.88
2022-10-23T03:54:34.407Z,10.83
2022-10-23T03:57:01.176Z,10.12
2022-10-23T03:59:28.021Z,10.78
2022-10-23T04:01:54.943Z,10.70
2022-10-23T04:04:21.664Z,10.79
2022-10-23T04:06:48.250Z,10.10
2022-10-23T04:09:15.138Z,9.68
2022-10-23T04:11:41.887Z,9.72
2022-10-23T04:14:10.227Z,10.98
2022-10-23T04:16:36.807Z,10.99
2022-10-23T04:19:04.192Z,10.97
2022-10-23T04:21:30.926Z,10.06
2022-10-23T04:23:57.530Z,10.74
2022-10-23T04:26:24.135Z,10.33
2022-10-23T04:28:50.767Z,9.52
2022-10-23T04:31:17.433Z,10.63
2022-10-23T04:33:44.045Z,10.55
2022-10-23T04:36:10.679Z,10.12
2022-10-23T04:38:37.626Z,10.44
2022-10-23T04:41:04.268Z,10.23
2022-10-23T04:43:30.853Z,9.27
2022-10-23T04:45:57.450Z,10.89
2022-10-23T04:48:26.921Z,10.77
2022-10-23T04:51:00.016Z,10.39
2022-10-23T04:53:26.901Z,10.68
2022-10-23T04:55:54.587Z,10.66
2022-10-23T04:58:21.405Z,10.53
2022-10-23T05:00:48.279Z,10.55
2022-10-23T05:03:15.400Z,11.00
2022-10-23T05:05:42.343Z,10.00
2022-10-23T05:08:08.997Z,10.88
2022-10-23T05:10:35.603Z,10.40
2022-10-23T05:13:02.725Z,10.88
2022-10-23T05:15:29.378Z,9.48
2022-10-23T05:17:58.188Z,10.54
2022-10-23T05:20:26.671Z,10.92
2022-10-23T05:22:53.487Z,10.53
2022-10-23T05:25:20.048Z,10.05
2022-10-23T05:27:46.623Z,10.44
2022-10-23T05:30:13.557Z,10.63
2022-10-23T05:32:40.423Z,10.24
2022-10-23T05:35:09.018Z,8.74
2022-10-23T05:37:38.197Z,10.06
2022-10-23T05:40:05.225Z,9.22
2022-10-23T05:42:31.841Z,9.82
2022-10-23T05:44:58.468Z,9.71
2022-10-23T05:47:25.141Z,10.44
2022-10-23T05:49:51.753Z,9.71
2022-10-23T05:52:20.294Z,8.99
2022-10-23T05:54:46.870Z,10.30
2022-10-23T05:57:13.554Z,9.71
2022-10-23T05:59:40.190Z,9.79
2022-10-23T06:02:06.930Z,9.54
2022-10-23T06:04:35.283Z,8.88
2022-10-23T06:07:02.748Z,9.90
2022-10-23T06:09:29.455Z,9.12
2022-10-23T06:11:56.134Z,9.79
2022-10-23T06:14:22.760Z,10.53
2022-10-23T06:16:49.413Z,10.07
2022-10-23T06:19:15.985Z,9.08
2022-10-23T06:21:42.642Z,9.63
2022-10-23T06:24:09.301Z,10.26
2022-10-23T06:26:35.980Z,10.15
2022-10-23T06:29:02.567Z,9.77
2022-10-23T06:31:29.146Z,10.01
2022-10-23T06:33:56.362Z,10.52
2022-10-23T06:36:23.015Z,9.67
2022-10-23T06:38:49.879Z,9.83
2022-10-23T06:41:18.361Z,10.22
2022-10-23T06:43:47.188Z,10.72
2022-10-23T06:46:13.826Z,10.67
2022-10-23T06:48:41.927Z,10.35
2022-10-23T06:51:10.476Z,9.84
2022-10-23T06:53:37.242Z,10.36
2022-10-23T06:56:04.357Z,10.30
2022-10-23T06:58:31.008Z,9.14
2022-10-23T07:01:01.851Z,10.49
2022-10-23T07:03:28.703Z,10.44
2022-10-23T07:05:55.462Z,9.18
2022-10-23T07:08:22.184Z,10.47
2022-10-23T07:10:48.924Z,9.77
2022-10-23T07:13:15.565Z,10.77
2022-10-23T07:15:42.152Z,9.69
2022-10-23T07:18:14.526Z,9.79
2022-10-23T07:20:41.561Z,10.37
2022-10-23T07:23:08.878Z,10.88
2022-10-23T07:25:35.461Z,10.67
2022-10-23T07:28:02.078Z,10.85
2022-10-23T07:30:28.636Z,11.01
2022-10-23T07:32:55.285Z,11.16
2022-10-23T07:35:22.061Z,9.70
2022-10-23T07:37:48.772Z,9.32
2022-10-23T07:40:15.546Z,10.99
2022-10-23T07:42:42.139Z,10.95
2022-10-23T07:45:09.157Z,11.00
2022-10-23T07:47:35.769Z,10.69
2022-10-23T07:50:02.512Z,10.44
2022-10-23T07:52:32.085Z,9.80
2022-10-23T07:55:01.838Z,10.49
2022-10-23T07:57:28.616Z,10.74
2022-10-23T07:59:55.307Z,11.12
2022-10-23T08:02:21.940Z,10.91
2022-10-23T08:04:49.732Z,11.32
2022-10-23T08:07:16.341Z,11.12
2022-10-23T08:09:42.952Z,10.87
2022-10-23T08:12:09.902Z,10.84
2022-10-23T08:14:36.481Z,11.33
2022-10-23T08:17:05.156Z,11.28
2022-10-23T08:19:32.208Z,10.99
2022-10-23T08:21:58.979Z,11.56
2022-10-23T08:24:25.597Z,11.54
2022-10-23T08:26:52.339Z,11.62
2022-10-23T08:29:18.947Z,10.87
2022-10-23T08:31:45.840Z,11.01
2022-10-23T08:34:12.773Z,12.18
2022-10-23T08:36:39.411Z,12.93
2022-10-23T08:39:06.088Z,13.10
2022-10-23T08:41:37.419Z,13.62
2022-10-23T08:44:15.031Z,13.81
2022-10-23T08:46:43.870Z,14.13
2022-10-23T08:49:41.352Z,14.62
2022-10-23T08:52:16.175Z,13.01
2022-10-23T08:54:53.123Z,14.86
2022-10-23T08:57:19.859Z,15.15
2022-10-23T09:00:14.139Z,15.46
2022-10-23T09:02:48.786Z,15.18
2022-10-23T09:05:30.876Z,14.86
2022-10-23T09:08:09.697Z,15.81
2022-10-23T09:11:18.380Z,15.87
2022-10-23T09:14:08.011Z,15.90
2022-10-23T09:16:44.318Z,15.86
2022-10-23T09:19:16.053Z,15.50
2022-10-23T09:21:44.355Z,15.05
2022-10-23T09:24:22.279Z,15.40
2022-10-23T09:26:51.128Z,15.40
2022-10-23T09:29:32.908Z,15.03
2022-10-23T09:32:00.630Z,14.23
2022-10-23T09:34:29.187Z,15.28
2022-10-23T09:37:00.559Z,14.90
2022-10-23T09:39:31.458Z,14.68
2022-10-23T09:41:58.489Z,15.27
2022-10-23T09:44:27.082Z,15.26
2022-10-23T09:47:05.752Z,15.46
2022-10-23T09:49:33.950Z,15.40
2022-10-23T09:52:01.620Z,15.76
2022-10-23T09:54:29.649Z,15.36
2022-10-23T09:56:56.504Z,15.43
2022-10-23T09:59:30.190Z,15.72
2022-10-23T10:01:58.826Z,15.86
2022-10-23T10:04:36.763Z,16.06
2022-10-23T10:07:04.808Z,15.41
2022-10-23T10:09:31.500Z,16.34
2022-10-23T10:12:09.333Z,15.75
2022-10-23T10:14:45.449Z,16.38
2022-10-23T10:17:20.341Z,16.42
2022-10-23T10:20:29.311Z,16.50
2022-10-23T10:23:33.766Z,16.59
2022-10-23T10:26:08.567Z,16.24
2022-10-23T10:28:45.336Z,16.70
2022-10-23T10:31:12.038Z,16.73
2022-10-23T10:33:42.623Z,16.72
2022-10-23T10:36:40.831Z,16.75
2022-10-23T10:39:47.475Z,16.81
2022-10-23T10:42:29.428Z,16.81
2022-10-23T10:45:08.481Z,16.99
2022-10-23T10:48:00.348Z,17.07
2022-10-23T10:50:31.724Z,16.53
2022-10-23T10:53:07.557Z,16.99
2022-10-23T10:55:38.396Z,16.25
2022-10-23T10:58:26.124Z,16.68
2022-10-23T11:00:56.055Z,16.75
2022-10-23T11:03:42.581Z,16.81
2022-10-23T11:06:14.951Z,15.00
2022-10-23T11:08:56.197Z,16.66
2022-10-23T11:11:27.255Z,16.66
2022-10-23T11:13:55.134Z,16.89
2022-10-23T11:16:31.909Z,15.74
2022-10-23T11:19:11.429Z,17.11
2022-10-23T11:21:44.669Z,17.25
2022-10-23T11:24:20.497Z,17.28
2022-10-23T11:27:02.066Z,17.31
2022-10-23T11:29:51.824Z,16.41
2022-10-23T11:32:43.916Z,17.42
2022-10-23T11:35:48.096Z,17.46
2022-10-23T11:38:30.145Z,16.27
2022-10-23T11:41:04.163Z,16.65
2022-10-23T11:43:58.267Z,17.41
2022-10-23T11:46:38.758Z,17.71
2022-10-23T11:49:06.586Z,17.41
2022-10-23T11:51:37.928Z,17.56
2022-10-23T11:54:26.509Z,17.59
2022-10-23T11:57:10.515Z,17.97
2022-10-23T11:59:49.641Z,17.96
2022-10-23T12:02:24.990Z,17.41
2022-10-23T12:04:52.387Z,17.23
2022-10-23T12:07:33.244Z,17.21
2022-10-23T12:10:07.612Z,17.55
2022-10-23T12:12:42.490Z,17.40
2022-10-23T12:15:11.994Z,17.72
2022-10-23T12:17:39.022Z,17.52
2022-10-23T12:20:08.743Z,17.77
2022-10-23T12:22:51.558Z,17.37
2022-10-23T12:25:23.703Z,16.71
2022-10-23T12:28:00.310Z,17.57
2022-10-23T12:30:49.590Z,17.38
2022-10-23T12:33:42.393Z,17.53
2022-10-23T12:36:42.872Z,17.78
2022-10-23T12:39:39.152Z,17.30
2022-10-23T12:42:11.317Z,17.19
2022-10-23T12:44:38.993Z,17.33
2022-10-23T12:47:05.812Z,17.50
2022-10-23T12:49:33.724Z,17.36
2022-10-23T12:52:01.898Z,17.22
2022-10-23T12:54:28.687Z,17.51
2022-10-23T12:56:55.248Z,17.49
2022-10-23T12:59:26.510Z,17.29
2022-10-23T13:01:54.394Z,17.16
2022-10-23T13:04:23.910Z,17.58
2022-10-23T13:06:50.510Z,16.68
2022-10-23T13:09:38.738Z,17.47
2022-10-23T13:12:05.799Z,16.91
2022-10-23T13:14:38.209Z,15.97
2022-10-23T13:17:08.760Z,17.48
2022-10-23T13:19:35.486Z,17.41
2022-10-23T13:22:04.311Z,17.12
2022-10-23T13:24:31.036Z,16.55
2022-10-23T13:26:58.038Z,17.13
2022-10-23T13:29:31.592Z,17.16
2022-10-23T13:31:58.214Z,17.10
2022-10-23T13:34:31.208Z,17.04
2022-10-23T13:37:00.720Z,17.30
2022-10-23T13:39:36.549Z,16.85
2022-10-23T13:42:11.885Z,17.10
2022-10-23T13:44:38.632Z,16.68
2022-10-23T13:47:05.536Z,17.05
2022-10-23T13:49:32.338Z,17.08
2022-10-23T13:51:59.102Z,15.97
2022-10-23T13:56:55.255Z,16.74
2022-10-23T13:59:22.066Z,16.93
2022-10-23T14:01:49.233Z,17.02
2022-10-23T14:04:16.257Z,16.93
2022-10-23T14:06:42.928Z,16.02
2022-10-23T14:09:14.631Z,16.20
2022-10-23T14:11:41.267Z,16.53
2022-10-23T14:14:08.038Z,16.57
2022-10-23T14:16:34.677Z,16.30
2022-10-23T14:19:01.321Z,16.55
2022-10-23T14:21:27.913Z,16.53
2022-10-23T14:23:54.655Z,16.42
2022-10-23T14:26:23.317Z,16.64
2022-10-23T14:28:52.807Z,16.57
2022-10-23T14:31:19.468Z,16.53
2022-10-23T14:33:46.154Z,15.52
2022-10-23T14:36:12.876Z,16.36
2022-10-23T14:38:39.569Z,16.47
2022-10-23T14:41:13.496Z,16.24
2022-10-23T14:43:40.272Z,16.37
2022-10-23T14:46:14.614Z,16.12
2022-10-23T14:48:44.579Z,16.41
2022-10-23T14:51:27.843Z,15.12
2022-10-23T14:53:58.772Z,15.92
2022-10-23T14:56:26.164Z,16.21
2022-10-23T14:58:52.745Z,16.03
2022-10-23T15:01:19.598Z,15.81
2022-10-23T15:03:46.379Z,15.33
2022-10-23T15:06:17.538Z,15.85
2022-10-23T15:08:44.977Z,15.46
2022-10-23T15:11:12.706Z,15.83
2022-10-23T15:13:39.662Z,15.26
2022-10-23T15:16:08.148Z,15.83
2022-10-23T15:18:39.208Z,14.98
2022-10-23T15:21:06.590Z,14.99
2022-10-23T15:23:34.774Z,14.20
2022-10-23T15:26:03.277Z,15.26
2022-10-23T15:28:30.240Z,15.08
2022-10-23T15:30:56.915Z,14.94
2022-10-23T15:33:23.606Z,15.06
2022-10-23T15:35:50.776Z,15.07
2022-10-23T15:38:17.612Z,14.76
2022-10-23T15:40:45.762Z,14.73
2022-10-23T15:43:13.273Z,14.71
2022-10-23T15:45:40.129Z,14.53
2022-10-23T15:48:07.241Z,14.70
2022-10-23T15:50:34.120Z,14.72
2022-10-23T15:53:00.860Z,14.65
2022-10-23T15:55:27.544Z,13.90
2022-10-23T15:57:54.740Z,14.35
2022-10-23T16:00:21.530Z,14.52
2022-10-23T16:02:48.254Z,14.23
2022-10-23T16:05:17.417Z,13.73
2022-10-23T16:07:44.049Z,13.78
2022-10-23T16:10:10.642Z,13.95
2022-10-23T16:12:37.342Z,14.07
2022-10-23T16:15:04.147Z,14.12
2022-10-23T16:17:30.716Z,13.90
2022-10-23T16:19:57.315Z,14.28
2022-10-23T16:22:23.975Z,14.03
2022-10-23T16:24:50.553Z,13.76
2022-10-23T16:27:17.316Z,13.41
2022-10-23T16:29:44.026Z,14.31
2022-10-23T16:32:10.775Z,13.56
2022-10-23T16:34:37.617Z,14.14
2022-10-23T16:37:04.187Z,14.22
2022-10-23T16:39:31.601Z,13.80
2022-10-23T16:41:58.297Z,13.71
2022-10-23T16:44:24.989Z,14.30
2022-10-23T16:46:51.559Z,12.81
2022-10-23T16:49:18.222Z,14.38
2022-10-23T16:51:45.002Z,14.02
2022-10-23T16:54:11.612Z,14.20
2022-10-23T16:56:38.309Z,12.80
2022-10-23T16:59:05.672Z,13.99
2022-10-23T17:01:33.126Z,12.64
2022-10-23T17:03:59.872Z,13.86
2022-10-23T17:06:30.835Z,14.14
2022-10-23T17:08:57.729Z,13.11
2022-10-23T17:11:25.733Z,13.14
2022-10-23T17:13:59.337Z,13.86
2022-10-23T17:16:37.666Z,13.84
2022-10-23T17:19:15.949Z,13.48
2022-10-23T17:21:47.924Z,13.37
2022-10-23T17:24:14.628Z,13.23
2022-10-23T17:26:41.214Z,13.42
2022-10-23T17:29:09.594Z,12.90
2022-10-23T17:31:38.057Z,12.80
2022-10-23T17:34:06.486Z,12.98
2022-10-23T17:36:35.634Z,12.66
2022-10-23T17:39:02.400Z,13.01
2022-10-23T17:41:29.025Z,12.19
2022-10-23T17:43:56.527Z,12.59
2022-10-23T17:46:23.732Z,12.23
2022-10-23T17:48:50.383Z,12.61
2022-10-23T17:51:21.436Z,12.12
2022-10-23T17:53:51.443Z,12.07
2022-10-23T17:56:22.783Z,12.47
2022-10-23T17:58:50.352Z,11.03
2022-10-23T18:01:18.343Z,12.34
2022-10-23T18:03:45.050Z,12.11
2022-10-23T18:06:38.438Z,12.03
2022-10-23T18:09:05.326Z,11.64
2022-10-23T18:11:34.508Z,11.64
2022-10-23T18:14:01.386Z,11.41
2022-10-23T18:16:28.114Z,11.23
2022-10-23T18:18:55.056Z,11.34
2022-10-23T18:21:23.204Z,11.75
2022-10-23T18:23:50.089Z,11.55
2022-10-23T18:26:17.920Z,11.99
2022-10-23T18:28:48.395Z,11.78
2022-10-23T18:31:15.206Z,11.52
2022-10-23T18:33:41.919Z,11.20
2022-10-23T18:36:22.819Z,11.69
2022-10-23T18:38:49.537Z,11.35
2022-10-23T18:41:16.490Z,11.00
2022-10-23T18:43:44.743Z,11.48
2022-10-23T18:46:12.780Z,11.46
2022-10-23T18:48:39.585Z,11.23
2022-10-23T18:51:32.353Z,11.65
2022-10-23T18:54:00.574Z,10.97
2022-10-23T18:56:27.988Z,11.46
2022-10-23T18:58:56.029Z,10.75
2022-10-23T19:01:22.979Z,11.12
2022-10-23T19:03:49.893Z,11.52
2022-10-23T19:06:16.720Z,11.19
2022-10-23T19:08:43.893Z,11.46
2022-10-23T19:11:10.934Z,10.90
2022-10-23T19:13:39.227Z,10.88
2022-10-23T19:16:12.100Z,11.60
2022-10-23T19:18:38.802Z,11.62
2022-10-23T19:21:06.065Z,11.11
2022-10-23T19:23:36.403Z,11.82
2022-10-23T19:26:09.066Z,11.46
2022-10-23T19:28:37.827Z,11.18
2022-10-23T19:31:04.713Z,11.85
2022-10-23T19:33:32.617Z,11.59
2022-10-23T19:36:01.269Z,11.17
2022-10-23T19:38:32.101Z,12.03
2022-10-23T19:40:58.710Z,11.58
2022-10-23T19:43:25.375Z,11.75
2022-10-23T19:45:52.106Z,11.58
2022-10-23T19:48:18.701Z,12.11
2022-10-23T19:50:45.512Z,12.16
2022-10-23T19:53:12.143Z,11.99
2022-10-23T19:55:38.869Z,12.17
2022-10-23T19:58:05.743Z,11.76
2022-10-23T20:00:32.444Z,11.48
2022-10-23T20:02:59.154Z,11.93
2022-10-23T20:05:25.870Z,11.54
2022-10-23T20:07:52.662Z,11.56
2022-10-23T20:10:19.486Z,11.82
2022-10-23T20:12:56.372Z,11.69
2022-10-23T20:15:23.687Z,11.88
2022-10-23T20:17:50.303Z,11.52
2022-10-23T20:20:17.298Z,11.96
2022-10-23T20:22:44.274Z,11.18
2022-10-23T20:25:11.056Z,12.06
2022-10-23T20:30:09.969Z,11.98
2022-10-23T20:32:36.615Z,12.10
2022-10-23T20:35:03.420Z,11.79
2022-10-23T20:37:30.603Z,11.48
2022-10-23T20:40:04.846Z,11.01
2022-10-23T20:42:31.460Z,12.41
2022-10-23T20:44:58.053Z,10.54
2022-10-23T20:47:24.613Z,11.73
2022-10-23T20:49:51.228Z,11.51
2022-10-23T20:52:17.916Z,11.89
2022-10-23T20:54:44.785Z,10.87
2022-10-23T20:57:11.622Z,10.56
2022-10-23T20:59:38.345Z,11.92
2022-10-23T21:02:05.209Z,10.24
2022-10-23T21:04:32.023Z,11.69
2022-10-23T21:07:14.124Z,11.88
2022-10-23T21:09:40.801Z,11.59
2022-10-23T21:12:07.780Z,11.24
2022-10-23T21:14:34.856Z,12.13
2022-10-23T21:17:01.543Z,11.79
2022-10-23T21:19:28.245Z,11.51
2022-10-23T21:21:55.142Z,11.63
2022-10-23T21:24:21.853Z,11.32
2022-10-23T21:26:48.515Z,11.69
2022-10-23T21:29:19.456Z,11.53
2022-10-23T21:31:59.888Z,11.38
2022-10-23T21:34:27.205Z,11.79
2022-10-23T21:37:12.602Z,11.95
2022-10-23T21:39:39.973Z,11.60
2022-10-23T21:42:06.611Z,12.00
2022-10-23T21:44:33.305Z,12.12
2022-10-23T21:47:00.007Z,11.10
2022-10-23T21:49:26.658Z,11.96
2022-10-23T21:51:55.238Z,11.87
2022-10-23T21:54:21.982Z,11.91
2022-10-23T21:56:50.087Z,12.40
2022-10-23T21:59:18.828Z,11.72
2022-10-23T22:01:46.241Z,11.20
2022-10-23T22:04:17.253Z,11.86
2022-10-23T22:06:44.210Z,11.87
2022-10-23T22:09:12.382Z,10.78
2022-10-23T22:11:39.093Z,11.84
2022-10-23T22:14:05.758Z,11.86
2022-10-23T22:16:32.388Z,11.41
2022-10-23T22:18:59.041Z,11.07
2022-10-23T22:21:26.949Z,11.84
2022-10-23T22:23:54.758Z,11.00
2022-10-23T22:26:25.956Z,10.93
2022-10-23T22:28:53.872Z,11.79
2022-10-23T22:31:22.812Z,11.41
2022-10-23T22:33:49.841Z,11.82
2022-10-23T22:36:16.528Z,11.89
2022-10-23T22:38:43.335Z,11.35
2022-10-23T22:41:10.040Z,10.47
2022-10-23T22:43:36.709Z,10.78
2022-10-23T22:46:08.558Z,10.68
2022-10-23T22:48:35.553Z,11.92
2022-10-23T22:51:02.238Z,11.94
2022-10-23T22:53:28.880Z,11.95
2022-10-23T22:55:55.641Z,10.91
2022-10-23T22:58:22.413Z,12.15
2022-10-23T23:00:49.125Z,12.29
2022-10-23T23:03:16.077Z,11.91
2022-10-23T23:05:47.097Z,11.19
2022-10-23T23:08:14.383Z,12.14
2022-10-23T23:10:41.208Z,11.25
2022-10-23T23:13:07.812Z,10.15
2022-10-23T23:15:39.257Z,11.92
2022-10-23T23:18:05.928Z,11.92
2022-10-23T23:20:32.574Z,11.68
2022-10-23T23:22:59.283Z,11.77
2022-10-23T23:25:26.017Z,11.66
2022-10-23T23:27:52.586Z,12.08
2022-10-23T23:30:19.137Z,12.34
2022-10-23T23:32:47.734Z,12.10
2022-10-23T23:35:14.374Z,11.29
2022-10-23T23:37:40.937Z,11.50
2022-10-23T23:40:08.099Z,11.94
2022-10-23T23:42:34.743Z,12.11
2022-10-23T23:45:13.823Z,11.80
2022-10-23T23:47:41.725Z,12.07
2022-10-23T23:50:09.269Z,11.69
2022-10-23T23:52:35.868Z,12.19
2022-10-23T23:55:02.475Z,11.92
2022-10-23T23:57:29.115Z,12.01
2022-10-23T23:59:55.833Z,12.09
